sensor_id;sensor_type;location;lat;lon;timestamp;pressure;altitude;pressure_sealevel;temperature;humidity
79362;BME280;68830;47.566;19.012;2023-04-01T00:02:56;98568.13;;;9.95;79.26
79362;BME280;68830;47.566;19.012;2023-04-01T00:05:59;98566.88;;;10.06;77.06
79362;BME280;68830;47.566;19.012;2023-04-01T00:09:01;98550.38;;;10.27;74.91
79362;BME280;68830;47.566;19.012;2023-04-01T00:12:04;98556.47;;;10.57;73.60
79362;BME280;68830;47.566;19.012;2023-04-01T00:15:09;98552.56;;;10.67;72.57
79362;BME280;68830;47.566;19.012;2023-04-01T00:18:12;98564.41;;;10.86;71.53
79362;BME280;68830;47.566;19.012;2023-04-01T00:21:15;98565.75;;;10.97;72.23
79362;BME280;68830;47.566;19.012;2023-04-01T00:24:18;98563.38;;;10.87;72.04
79362;BME280;68830;47.566;19.012;2023-04-01T00:27:22;98554.72;;;10.93;71.33
79362;BME280;68830;47.566;19.012;2023-04-01T00:30:24;98566.59;;;10.97;70.74
79362;BME280;68830;47.566;19.012;2023-04-01T00:33:26;98567.41;;;10.98;71.23
79362;BME280;68830;47.566;19.012;2023-04-01T00:36:29;98559.28;;;10.85;73.54
79362;BME280;68830;47.566;19.012;2023-04-01T00:39:31;98554.94;;;10.77;71.95
79362;BME280;68830;47.566;19.012;2023-04-01T00:42:36;98558.22;;;10.79;72.52
79362;BME280;68830;47.566;19.012;2023-04-01T00:45:40;98558.13;;;10.72;71.86
79362;BME280;68830;47.566;19.012;2023-04-01T00:48:44;98548.38;;;10.73;72.88
79362;BME280;68830;47.566;19.012;2023-04-01T00:51:48;98547.44;;;10.66;73.16
79362;BME280;68830;47.566;19.012;2023-04-01T00:54:56;98544.63;;;10.53;74.14
79362;BME280;68830;47.566;19.012;2023-04-01T00:58:05;98540.25;;;10.60;74.75
79362;BME280;68830;47.566;19.012;2023-04-01T01:01:09;98542.78;;;10.38;76.28
79362;BME280;68830;47.566;19.012;2023-04-01T01:04:21;98548.00;;;10.46;74.12
79362;BME280;68830;47.566;19.012;2023-04-01T01:07:29;98534.75;;;10.32;76.56
79362;BME280;68830;47.566;19.012;2023-04-01T01:10:38;98550.47;;;10.48;73.26
79362;BME280;68830;47.566;19.012;2023-04-01T01:13:46;98540.78;;;10.40;73.45
79362;BME280;68830;47.566;19.012;2023-04-01T01:16:53;98506.84;;;10.29;73.37
79362;BME280;68830;47.566;19.012;2023-04-01T01:20:19;98544.91;;;10.58;73.62
79362;BME280;68830;47.566;19.012;2023-04-01T01:27:03;98541.25;;;10.59;72.36
79362;BME280;68830;47.566;19.012;2023-04-01T01:30:21;98529.47;;;10.76;71.92
79362;BME280;68830;47.566;19.012;2023-04-01T01:33:41;98528.81;;;10.89;71.07
79362;BME280;68830;47.566;19.012;2023-04-01T01:36:52;98511.31;;;10.73;70.21
79362;BME280;68830;47.566;19.012;2023-04-01T01:39:57;98526.06;;;10.82;71.76
79362;BME280;68830;47.566;19.012;2023-04-01T01:43:04;98530.34;;;10.83;70.83
79362;BME280;68830;47.566;19.012;2023-04-01T01:46:10;98529.13;;;11.00;68.55
79362;BME280;68830;47.566;19.012;2023-04-01T01:49:14;98518.31;;;11.17;67.10
79362;BME280;68830;47.566;19.012;2023-04-01T01:52:18;98523.69;;;11.45;66.23
79362;BME280;68830;47.566;19.012;2023-04-01T01:55:27;98525.59;;;11.51;66.39
79362;BME280;68830;47.566;19.012;2023-04-01T01:58:33;98536.94;;;11.45;66.68
79362;BME280;68830;47.566;19.012;2023-04-01T02:01:44;98532.22;;;11.40;67.13
79362;BME280;68830;47.566;19.012;2023-04-01T02:04:49;98523.97;;;11.50;65.95
79362;BME280;68830;47.566;19.012;2023-04-01T02:07:59;98522.69;;;11.46;67.30
79362;BME280;68830;47.566;19.012;2023-04-01T02:11:05;98517.53;;;11.37;67.43
79362;BME280;68830;47.566;19.012;2023-04-01T02:14:10;98527.50;;;11.35;66.98
79362;BME280;68830;47.566;19.012;2023-04-01T02:17:17;98522.72;;;11.31;67.25
79362;BME280;68830;47.566;19.012;2023-04-01T02:20:21;98522.50;;;11.26;68.24
79362;BME280;68830;47.566;19.012;2023-04-01T02:23:26;98510.06;;;11.26;68.29
79362;BME280;68830;47.566;19.012;2023-04-01T02:26:29;98474.88;;;10.96;68.09
79362;BME280;68830;47.566;19.012;2023-04-01T02:29:33;98517.94;;;11.20;67.78
79362;BME280;68830;47.566;19.012;2023-04-01T02:32:36;98514.19;;;11.14;68.01
79362;BME280;68830;47.566;19.012;2023-04-01T02:35:40;98515.03;;;11.15;67.69
79362;BME280;68830;47.566;19.012;2023-04-01T02:38:44;98504.19;;;11.10;67.86
79362;BME280;68830;47.566;19.012;2023-04-01T02:41:47;98498.34;;;10.99;68.25
79362;BME280;68830;47.566;19.012;2023-04-01T02:44:48;98482.41;;;10.93;68.39
79362;BME280;68830;47.566;19.012;2023-04-01T02:47:50;98501.75;;;10.93;68.32
79362;BME280;68830;47.566;19.012;2023-04-01T02:50:52;98492.66;;;10.81;68.39
79362;BME280;68830;47.566;19.012;2023-04-01T02:53:56;98500.16;;;10.63;70.21
79362;BME280;68830;47.566;19.012;2023-04-01T02:56:58;98507.19;;;10.56;70.09
79362;BME280;68830;47.566;19.012;2023-04-01T03:00:01;98505.28;;;10.50;69.56
79362;BME280;68830;47.566;19.012;2023-04-01T03:03:03;98514.69;;;10.37;70.95
79362;BME280;68830;47.566;19.012;2023-04-01T03:06:06;98507.94;;;10.50;69.17
79362;BME280;68830;47.566;19.012;2023-04-01T03:09:10;98508.00;;;10.56;68.80
79362;BME280;68830;47.566;19.012;2023-04-01T03:12:12;98500.34;;;10.61;68.19
79362;BME280;68830;47.566;19.012;2023-04-01T03:15:14;98494.63;;;10.58;68.23
79362;BME280;68830;47.566;19.012;2023-04-01T03:18:17;98505.09;;;10.66;67.82
79362;BME280;68830;47.566;19.012;2023-04-01T03:21:21;98498.97;;;10.65;68.22
79362;BME280;68830;47.566;19.012;2023-04-01T03:24:25;98498.78;;;10.67;67.78
79362;BME280;68830;47.566;19.012;2023-04-01T03:27:27;98513.84;;;10.66;68.13
79362;BME280;68830;47.566;19.012;2023-04-01T03:30:29;98516.25;;;10.61;68.01
79362;BME280;68830;47.566;19.012;2023-04-01T03:33:36;98518.78;;;10.69;67.90
79362;BME280;68830;47.566;19.012;2023-04-01T03:36:38;98511.94;;;10.75;67.60
79362;BME280;68830;47.566;19.012;2023-04-01T03:39:42;98517.03;;;10.76;67.62
79362;BME280;68830;47.566;19.012;2023-04-01T03:42:45;98524.69;;;10.86;67.63
79362;BME280;68830;47.566;19.012;2023-04-01T03:45:49;98526.44;;;10.79;67.78
79362;BME280;68830;47.566;19.012;2023-04-01T03:48:51;98539.50;;;10.81;67.65
79362;BME280;68830;47.566;19.012;2023-04-01T03:51:53;98540.50;;;10.65;68.92
79362;BME280;68830;47.566;19.012;2023-04-01T03:54:57;98484.56;;;10.38;68.68
79362;BME280;68830;47.566;19.012;2023-04-01T03:57:59;98523.19;;;10.47;68.10
79362;BME280;68830;47.566;19.012;2023-04-01T04:01:03;98543.41;;;10.55;68.77
79362;BME280;68830;47.566;19.012;2023-04-01T04:04:14;98540.44;;;10.43;68.92
79362;BME280;68830;47.566;19.012;2023-04-01T04:07:16;98550.28;;;10.35;70.19
79362;BME280;68830;47.566;19.012;2023-04-01T04:10:20;98555.75;;;10.33;69.60
79362;BME280;68830;47.566;19.012;2023-04-01T04:13:22;98548.91;;;10.39;68.48
79362;BME280;68830;47.566;19.012;2023-04-01T04:16:24;98554.47;;;10.44;68.79
79362;BME280;68830;47.566;19.012;2023-04-01T04:19:30;98528.28;;;10.34;68.17
79362;BME280;68830;47.566;19.012;2023-04-01T04:22:32;98532.81;;;10.26;68.75
79362;BME280;68830;47.566;19.012;2023-04-01T04:25:36;98546.25;;;10.24;69.55
79362;BME280;68830;47.566;19.012;2023-04-01T04:28:38;98546.13;;;10.17;69.67
79362;BME280;68830;47.566;19.012;2023-04-01T04:31:40;98539.81;;;10.04;70.09
79362;BME280;68830;47.566;19.012;2023-04-01T04:34:42;98540.06;;;10.09;70.38
79362;BME280;68830;47.566;19.012;2023-04-01T04:37:44;98552.13;;;9.97;71.21
79362;BME280;68830;47.566;19.012;2023-04-01T04:40:47;98534.94;;;9.93;71.00
79362;BME280;68830;47.566;19.012;2023-04-01T04:43:52;98544.00;;;9.98;71.34
79362;BME280;68830;47.566;19.012;2023-04-01T04:46:54;98529.94;;;9.98;71.22
79362;BME280;68830;47.566;19.012;2023-04-01T04:49:59;98528.13;;;9.98;70.50
79362;BME280;68830;47.566;19.012;2023-04-01T04:53:01;98530.41;;;10.01;70.01
79362;BME280;68830;47.566;19.012;2023-04-01T04:56:05;98552.00;;;9.90;70.56
79362;BME280;68830;47.566;19.012;2023-04-01T04:59:07;98546.84;;;9.74;71.28
79362;BME280;68830;47.566;19.012;2023-04-01T05:02:09;98544.00;;;9.75;71.67
79362;BME280;68830;47.566;19.012;2023-04-01T05:05:11;98543.88;;;9.92;71.12
79362;BME280;68830;47.566;19.012;2023-04-01T05:08:14;98534.91;;;10.15;70.79
79362;BME280;68830;47.566;19.012;2023-04-01T05:11:19;98548.91;;;10.39;69.79
79362;BME280;68830;47.566;19.012;2023-04-01T05:14:21;98552.47;;;10.46;69.59
79362;BME280;68830;47.566;19.012;2023-04-01T05:17:24;98542.78;;;10.53;70.00
79362;BME280;68830;47.566;19.012;2023-04-01T05:20:26;98543.72;;;10.60;69.94
79362;BME280;68830;47.566;19.012;2023-04-01T05:23:32;98544.91;;;10.72;69.01
79362;BME280;68830;47.566;19.012;2023-04-01T05:26:36;98545.41;;;10.83;69.89
79362;BME280;68830;47.566;19.012;2023-04-01T05:29:38;98553.47;;;10.89;68.85
79362;BME280;68830;47.566;19.012;2023-04-01T05:32:40;98553.16;;;10.99;68.81
79362;BME280;68830;47.566;19.012;2023-04-01T05:35:42;98553.25;;;11.05;68.54
79362;BME280;68830;47.566;19.012;2023-04-01T05:38:44;98551.13;;;11.01;67.82
79362;BME280;68830;47.566;19.012;2023-04-01T05:41:51;98561.16;;;11.20;67.58
79362;BME280;68830;47.566;19.012;2023-04-01T05:44:53;98563.66;;;11.43;66.93
79362;BME280;68830;47.566;19.012;2023-04-01T05:47:55;98566.06;;;11.59;67.04
79362;BME280;68830;47.566;19.012;2023-04-01T05:50:58;98562.13;;;11.77;64.57
79362;BME280;68830;47.566;19.012;2023-04-01T05:54:00;98555.72;;;11.86;64.02
79362;BME280;68830;47.566;19.012;2023-04-01T05:57:03;98560.72;;;11.95;63.66
79362;BME280;68830;47.566;19.012;2023-04-01T06:00:06;98559.75;;;12.03;64.95
79362;BME280;68830;47.566;19.012;2023-04-01T06:03:09;98553.22;;;12.06;63.67
79362;BME280;68830;47.566;19.012;2023-04-01T06:06:14;98553.72;;;12.16;63.90
79362;BME280;68830;47.566;19.012;2023-04-01T06:09:19;98560.09;;;12.21;63.33
79362;BME280;68830;47.566;19.012;2023-04-01T06:12:47;98554.03;;;12.27;64.32
79362;BME280;68830;47.566;19.012;2023-04-01T06:15:57;98550.16;;;12.30;63.16
79362;BME280;68830;47.566;19.012;2023-04-01T06:19:22;98556.94;;;12.39;62.61
79362;BME280;68830;47.566;19.012;2023-04-01T06:22:49;98547.19;;;12.46;59.95
79362;BME280;68830;47.566;19.012;2023-04-01T06:26:15;98541.56;;;12.63;61.08
79362;BME280;68830;47.566;19.012;2023-04-01T06:29:45;98552.47;;;12.74;59.92
79362;BME280;68830;47.566;19.012;2023-04-01T06:33:02;98553.34;;;12.88;60.34
79362;BME280;68830;47.566;19.012;2023-04-01T06:36:20;98529.81;;;12.85;58.34
79362;BME280;68830;47.566;19.012;2023-04-01T06:39:35;98543.34;;;12.90;58.23
79362;BME280;68830;47.566;19.012;2023-04-01T06:42:54;98556.03;;;13.01;59.24
79362;BME280;68830;47.566;19.012;2023-04-01T06:46:10;98560.72;;;12.99;59.95
79362;BME280;68830;47.566;19.012;2023-04-01T06:49:31;98552.75;;;12.99;59.40
79362;BME280;68830;47.566;19.012;2023-04-01T06:52:43;98564.47;;;13.05;58.58
79362;BME280;68830;47.566;19.012;2023-04-01T06:55:53;98558.94;;;13.13;57.97
79362;BME280;68830;47.566;19.012;2023-04-01T06:59:02;98560.03;;;13.19;59.36
79362;BME280;68830;47.566;19.012;2023-04-01T07:02:19;98567.03;;;13.33;57.53
79362;BME280;68830;47.566;19.012;2023-04-01T07:05:25;98570.13;;;13.36;57.00
79362;BME280;68830;47.566;19.012;2023-04-01T07:08:35;98571.19;;;13.49;56.27
79362;BME280;68830;47.566;19.012;2023-04-01T07:11:38;98568.53;;;13.55;56.84
79362;BME280;68830;47.566;19.012;2023-04-01T07:14:43;98551.53;;;13.56;56.91
79362;BME280;68830;47.566;19.012;2023-04-01T07:17:52;98565.47;;;13.71;56.06
79362;BME280;68830;47.566;19.012;2023-04-01T07:20:56;98556.91;;;13.89;56.61
79362;BME280;68830;47.566;19.012;2023-04-01T07:24:03;98557.53;;;13.98;56.64
79362;BME280;68830;47.566;19.012;2023-04-01T07:27:09;98555.88;;;14.03;55.42
79362;BME280;68830;47.566;19.012;2023-04-01T07:30:14;98564.50;;;14.12;55.78
79362;BME280;68830;47.566;19.012;2023-04-01T07:33:24;98566.72;;;14.15;54.65
79362;BME280;68830;47.566;19.012;2023-04-01T07:36:33;98557.09;;;14.14;54.62
79362;BME280;68830;47.566;19.012;2023-04-01T07:39:44;98569.59;;;14.20;54.39
79362;BME280;68830;47.566;19.012;2023-04-01T07:43:01;98573.50;;;14.24;56.64
79362;BME280;68830;47.566;19.012;2023-04-01T07:46:13;98570.00;;;14.24;54.07
79362;BME280;68830;47.566;19.012;2023-04-01T07:49:26;98566.94;;;14.27;55.14
79362;BME280;68830;47.566;19.012;2023-04-01T07:52:35;98556.28;;;14.14;54.48
79362;BME280;68830;47.566;19.012;2023-04-01T07:55:45;98569.16;;;14.23;55.28
79362;BME280;68830;47.566;19.012;2023-04-01T07:58:55;98576.56;;;14.15;55.07
79362;BME280;68830;47.566;19.012;2023-04-01T08:02:07;98515.00;;;13.10;56.73
79362;BME280;68830;47.566;19.012;2023-04-01T08:05:19;98500.03;;;12.48;61.01
79362;BME280;68830;47.566;19.012;2023-04-01T08:08:32;98506.88;;;12.36;60.89
79362;BME280;68830;47.566;19.012;2023-04-01T08:11:48;98516.16;;;12.47;60.08
79362;BME280;68830;47.566;19.012;2023-04-01T08:15:00;98495.44;;;12.36;60.39
79362;BME280;68830;47.566;19.012;2023-04-01T08:18:14;98508.31;;;12.73;58.72
79362;BME280;68830;47.566;19.012;2023-04-01T08:21:24;98510.84;;;13.01;60.06
79362;BME280;68830;47.566;19.012;2023-04-01T08:24:31;98519.63;;;12.89;59.15
79362;BME280;68830;47.566;19.012;2023-04-01T08:27:51;98509.56;;;12.77;58.74
79362;BME280;68830;47.566;19.012;2023-04-01T08:30:58;98576.81;;;12.84;58.75
79362;BME280;68830;47.566;19.012;2023-04-01T08:34:04;98579.16;;;13.49;57.20
79362;BME280;68830;47.566;19.012;2023-04-01T08:37:11;98575.94;;;14.06;55.42
79362;BME280;68830;47.566;19.012;2023-04-01T08:40:52;98582.72;;;14.28;54.22
79362;BME280;68830;47.566;19.012;2023-04-01T08:47:49;98580.47;;;14.45;53.76
79362;BME280;68830;47.566;19.012;2023-04-01T08:54:40;98573.25;;;14.65;53.73
79362;BME280;68830;47.566;19.012;2023-04-01T08:57:57;98577.50;;;14.86;53.22
79362;BME280;68830;47.566;19.012;2023-04-01T09:01:13;98525.75;;;14.56;52.90
79362;BME280;68830;47.566;19.012;2023-04-01T09:08:15;98562.00;;;12.69;62.93
79362;BME280;68830;47.566;19.012;2023-04-01T09:11:28;98564.53;;;12.83;62.37
79362;BME280;68830;47.566;19.012;2023-04-01T09:14:48;98558.13;;;13.06;63.62
79362;BME280;68830;47.566;19.012;2023-04-01T09:18:15;98562.19;;;13.02;58.79
79362;BME280;68830;47.566;19.012;2023-04-01T09:21:28;98558.63;;;13.23;59.35
79362;BME280;68830;47.566;19.012;2023-04-01T09:25:05;98557.53;;;13.17;60.64
79362;BME280;68830;47.566;19.012;2023-04-01T09:28:17;98556.22;;;13.00;59.17
79362;BME280;68830;47.566;19.012;2023-04-01T09:31:37;98557.16;;;12.72;59.51
79362;BME280;68830;47.566;19.012;2023-04-01T09:34:53;98557.50;;;12.63;60.04
79362;BME280;68830;47.566;19.012;2023-04-01T09:38:09;98557.50;;;12.63;61.21
79362;BME280;68830;47.566;19.012;2023-04-01T09:41:28;98553.81;;;12.57;60.17
79362;BME280;68830;47.566;19.012;2023-04-01T09:44:34;98548.84;;;12.54;61.64
79362;BME280;68830;47.566;19.012;2023-04-01T09:47:45;98542.38;;;12.56;60.43
79362;BME280;68830;47.566;19.012;2023-04-01T09:51:00;98525.97;;;12.53;60.68
79362;BME280;68830;47.566;19.012;2023-04-01T09:54:11;98553.09;;;12.76;60.49
79362;BME280;68830;47.566;19.012;2023-04-01T09:57:51;98556.63;;;12.90;59.94
79362;BME280;68830;47.566;19.012;2023-04-01T10:01:12;98555.41;;;12.99;60.29
79362;BME280;68830;47.566;19.012;2023-04-01T10:08:32;98569.59;;;13.13;59.30
79362;BME280;68830;47.566;19.012;2023-04-01T10:12:09;98560.09;;;12.91;59.25
79362;BME280;68830;47.566;19.012;2023-04-01T10:15:34;98560.31;;;12.89;59.08
79362;BME280;68830;47.566;19.012;2023-04-01T10:19:06;98559.22;;;12.83;60.33
79362;BME280;68830;47.566;19.012;2023-04-01T10:22:22;98563.00;;;12.61;61.14
79362;BME280;68830;47.566;19.012;2023-04-01T10:25:53;98564.88;;;12.67;61.77
79362;BME280;68830;47.566;19.012;2023-04-01T10:33:30;98560.72;;;12.99;59.21
79362;BME280;68830;47.566;19.012;2023-04-01T10:36:48;98566.03;;;12.99;58.57
79362;BME280;68830;47.566;19.012;2023-04-01T10:40:21;98562.84;;;13.10;59.49
79362;BME280;68830;47.566;19.012;2023-04-01T10:47:39;98560.34;;;13.76;58.54
79362;BME280;68830;47.566;19.012;2023-04-01T10:51:04;98555.03;;;13.70;57.36
79362;BME280;68830;47.566;19.012;2023-04-01T10:54:37;98555.69;;;13.98;56.46
79362;BME280;68830;47.566;19.012;2023-04-01T10:58:04;98556.47;;;14.19;54.71
79362;BME280;68830;47.566;19.012;2023-04-01T11:01:27;98545.41;;;14.09;54.57
79362;BME280;68830;47.566;19.012;2023-04-01T11:04:57;98556.09;;;14.15;54.30
79362;BME280;68830;47.566;19.012;2023-04-01T11:12:07;98538.63;;;14.39;52.88
79362;BME280;68830;47.566;19.012;2023-04-01T11:15:43;98531.81;;;14.76;51.11
79362;BME280;68830;47.566;19.012;2023-04-01T11:19:12;98543.38;;;14.57;53.83
79362;BME280;68830;47.566;19.012;2023-04-01T11:22:35;98542.38;;;14.12;53.11
79362;BME280;68830;47.566;19.012;2023-04-01T11:25:50;98553.84;;;13.99;54.11
79362;BME280;68830;47.566;19.012;2023-04-01T11:29:23;98564.63;;;13.58;54.40
79362;BME280;68830;47.566;19.012;2023-04-01T11:32:50;98555.19;;;13.35;57.02
79362;BME280;68830;47.566;19.012;2023-04-01T11:36:08;98555.72;;;13.18;55.89
79362;BME280;68830;47.566;19.012;2023-04-01T11:39:20;98567.53;;;13.15;57.20
79362;BME280;68830;47.566;19.012;2023-04-01T11:42:34;98567.53;;;13.15;55.57
79362;BME280;68830;47.566;19.012;2023-04-01T11:45:48;98573.88;;;13.14;55.04
79362;BME280;68830;47.566;19.012;2023-04-01T11:49:00;98561.81;;;13.05;56.07
79362;BME280;68830;47.566;19.012;2023-04-01T11:52:19;98580.50;;;13.18;56.38
79362;BME280;68830;47.566;19.012;2023-04-01T11:55:28;98572.38;;;13.33;55.89
79362;BME280;68830;47.566;19.012;2023-04-01T11:58:43;98574.44;;;13.51;55.30
79362;BME280;68830;47.566;19.012;2023-04-01T12:01:59;98564.66;;;13.64;54.49
79362;BME280;68830;47.566;19.012;2023-04-01T12:08:44;98561.41;;;13.95;53.27
79362;BME280;68830;47.566;19.012;2023-04-01T12:11:52;98561.41;;;14.02;53.26
79362;BME280;68830;47.566;19.012;2023-04-01T12:15:13;98554.63;;;13.93;53.58
79362;BME280;68830;47.566;19.012;2023-04-01T12:18:24;98567.13;;;13.92;54.55
79362;BME280;68830;47.566;19.012;2023-04-01T12:21:35;98568.78;;;13.87;53.86
79362;BME280;68830;47.566;19.012;2023-04-01T12:24:45;98575.94;;;13.93;54.28
79362;BME280;68830;47.566;19.012;2023-04-01T12:28:02;98569.78;;;13.79;55.21
79362;BME280;68830;47.566;19.012;2023-04-01T12:31:16;98561.41;;;13.82;55.30
79362;BME280;68830;47.566;19.012;2023-04-01T12:34:50;98568.78;;;14.00;56.17
79362;BME280;68830;47.566;19.012;2023-04-01T12:38:13;98573.47;;;14.04;53.53
79362;BME280;68830;47.566;19.012;2023-04-01T12:41:24;98559.16;;;14.25;53.28
79362;BME280;68830;47.566;19.012;2023-04-01T12:44:34;98525.72;;;14.36;52.54
79362;BME280;68830;47.566;19.012;2023-04-01T12:59:00;98559.31;;;14.63;51.99
79362;BME280;68830;47.566;19.012;2023-04-01T13:02:13;98548.88;;;14.42;52.05
79362;BME280;68830;47.566;19.012;2023-04-01T13:05:47;98548.72;;;14.44;51.91
79362;BME280;68830;47.566;19.012;2023-04-01T13:09:08;98536.38;;;14.43;52.57
79362;BME280;68830;47.566;19.012;2023-04-01T13:12:38;98549.72;;;14.56;52.21
79362;BME280;68830;47.566;19.012;2023-04-01T13:15:49;98530.88;;;14.44;52.63
79362;BME280;68830;47.566;19.012;2023-04-01T13:18:58;98538.00;;;14.63;51.36
79362;BME280;68830;47.566;19.012;2023-04-01T13:22:08;98533.09;;;15.12;50.88
79362;BME280;68830;47.566;19.012;2023-04-01T13:25:23;98540.53;;;15.41;49.72
79362;BME280;68830;47.566;19.012;2023-04-01T13:28:32;98537.97;;;15.66;49.60
79362;BME280;68830;47.566;19.012;2023-04-01T13:31:50;98546.50;;;15.75;48.01
79362;BME280;68830;47.566;19.012;2023-04-01T13:35:10;98547.28;;;15.82;48.19
79362;BME280;68830;47.566;19.012;2023-04-01T13:41:57;98543.94;;;15.93;47.59
79362;BME280;68830;47.566;19.012;2023-04-01T13:45:12;98553.78;;;15.61;48.90
79362;BME280;68830;47.566;19.012;2023-04-01T13:48:29;98565.03;;;15.70;49.60
79362;BME280;68830;47.566;19.012;2023-04-01T13:59:02;98561.88;;;15.03;49.10
79362;BME280;68830;47.566;19.012;2023-04-01T14:02:24;98563.00;;;14.62;50.60
79362;BME280;68830;47.566;19.012;2023-04-01T14:05:53;98562.63;;;14.32;51.85
79362;BME280;68830;47.566;19.012;2023-04-01T14:09:34;98568.34;;;14.43;53.25
79362;BME280;68830;47.566;19.012;2023-04-01T14:12:47;98553.03;;;14.12;53.33
79362;BME280;68830;47.566;19.012;2023-04-01T14:16:03;98548.91;;;13.89;54.42
79362;BME280;68830;47.566;19.012;2023-04-01T14:19:23;98546.22;;;13.76;53.80
79362;BME280;68830;47.566;19.012;2023-04-01T14:22:33;98551.16;;;13.92;53.39
79362;BME280;68830;47.566;19.012;2023-04-01T14:29:27;98550.75;;;14.22;51.41
79362;BME280;68830;47.566;19.012;2023-04-01T14:32:41;98558.75;;;14.15;50.78
79362;BME280;68830;47.566;19.012;2023-04-01T14:35:57;98555.22;;;14.54;51.08
79362;BME280;68830;47.566;19.012;2023-04-01T14:39:26;98545.53;;;14.86;49.63
79362;BME280;68830;47.566;19.012;2023-04-01T14:42:47;98536.50;;;14.81;49.95
79362;BME280;68830;47.566;19.012;2023-04-01T14:46:12;98543.00;;;14.98;49.01
79362;BME280;68830;47.566;19.012;2023-04-01T14:49:20;98543.59;;;15.00;49.34
79362;BME280;68830;47.566;19.012;2023-04-01T14:52:27;98543.81;;;15.05;50.16
79362;BME280;68830;47.566;19.012;2023-04-01T14:55:33;98545.88;;;14.97;50.93
79362;BME280;68830;47.566;19.012;2023-04-01T14:58:43;98559.28;;;14.70;51.91
79362;BME280;68830;47.566;19.012;2023-04-01T15:01:51;98518.19;;;14.26;53.62
79362;BME280;68830;47.566;19.012;2023-04-01T15:05:10;98548.06;;;14.42;53.58
79362;BME280;68830;47.566;19.012;2023-04-01T15:08:20;98545.22;;;14.30;52.46
79362;BME280;68830;47.566;19.012;2023-04-01T15:11:33;98554.59;;;14.39;52.88
79362;BME280;68830;47.566;19.012;2023-04-01T15:14:54;98557.69;;;14.43;51.94
79362;BME280;68830;47.566;19.012;2023-04-01T15:18:08;98546.44;;;14.41;51.46
79362;BME280;68830;47.566;19.012;2023-04-01T15:21:18;98557.72;;;14.56;51.57
79362;BME280;68830;47.566;19.012;2023-04-01T15:24:22;98555.47;;;14.46;51.66
79362;BME280;68830;47.566;19.012;2023-04-01T15:27:36;98546.22;;;14.49;51.14
79362;BME280;68830;47.566;19.012;2023-04-01T15:30:50;98551.53;;;14.62;50.73
79362;BME280;68830;47.566;19.012;2023-04-01T15:34:16;98541.88;;;14.68;50.62
79362;BME280;68830;47.566;19.012;2023-04-01T15:37:32;98548.00;;;14.81;48.50
79362;BME280;68830;47.566;19.012;2023-04-01T15:40:43;98537.94;;;14.90;48.28
79362;BME280;68830;47.566;19.012;2023-04-01T15:43:49;98547.78;;;14.89;47.10
79362;BME280;68830;47.566;19.012;2023-04-01T15:46:55;98540.59;;;14.90;47.11
79362;BME280;68830;47.566;19.012;2023-04-01T15:50:17;98560.72;;;14.86;47.12
79362;BME280;68830;47.566;19.012;2023-04-01T15:53:37;98552.72;;;14.86;46.86
79362;BME280;68830;47.566;19.012;2023-04-01T15:56:57;98563.38;;;14.86;46.20
79362;BME280;68830;47.566;19.012;2023-04-01T16:00:13;98575.25;;;14.83;46.63
79362;BME280;68830;47.566;19.012;2023-04-01T16:03:31;98577.69;;;14.85;46.20
79362;BME280;68830;47.566;19.012;2023-04-01T16:06:56;98562.38;;;14.74;45.79
79362;BME280;68830;47.566;19.012;2023-04-01T16:10:17;98571.19;;;14.68;46.68
79362;BME280;68830;47.566;19.012;2023-04-01T16:13:30;98577.53;;;14.73;46.20
79362;BME280;68830;47.566;19.012;2023-04-01T16:16:51;98589.03;;;14.74;47.52
79362;BME280;68830;47.566;19.012;2023-04-01T16:19:55;98587.78;;;14.70;47.18
79362;BME280;68830;47.566;19.012;2023-04-01T16:23:09;98562.22;;;14.42;47.28
79362;BME280;68830;47.566;19.012;2023-04-01T16:26:20;98601.16;;;14.56;46.89
79362;BME280;68830;47.566;19.012;2023-04-01T16:29:32;98600.31;;;14.49;46.67
79362;BME280;68830;47.566;19.012;2023-04-01T16:32:41;98608.50;;;14.34;48.37
79362;BME280;68830;47.566;19.012;2023-04-01T16:35:53;98603.81;;;14.30;49.08
79362;BME280;68830;47.566;19.012;2023-04-01T16:39:30;98607.09;;;14.25;48.68
79362;BME280;68830;47.566;19.012;2023-04-01T16:42:46;98602.78;;;14.18;49.20
79362;BME280;68830;47.566;19.012;2023-04-01T16:45:56;98616.72;;;14.13;49.29
79362;BME280;68830;47.566;19.012;2023-04-01T16:49:17;98614.84;;;14.00;49.55
79362;BME280;68830;47.566;19.012;2023-04-01T16:52:36;98605.41;;;13.85;49.84
79362;BME280;68830;47.566;19.012;2023-04-01T16:55:49;98598.03;;;13.80;49.51
79362;BME280;68830;47.566;19.012;2023-04-01T16:58:59;98627.84;;;13.62;51.34
79362;BME280;68830;47.566;19.012;2023-04-01T17:02:10;98630.09;;;13.59;51.75
79362;BME280;68830;47.566;19.012;2023-04-01T17:05:15;98629.84;;;13.40;53.22
79362;BME280;68830;47.566;19.012;2023-04-01T17:08:28;98627.78;;;13.36;53.50
79362;BME280;68830;47.566;19.012;2023-04-01T17:11:37;98599.09;;;12.83;54.52
79362;BME280;68830;47.566;19.012;2023-04-01T17:14:48;98641.56;;;12.77;57.09
79362;BME280;68830;47.566;19.012;2023-04-01T17:17:59;98647.66;;;12.43;58.21
79362;BME280;68830;47.566;19.012;2023-04-01T17:21:09;98646.88;;;12.49;57.69
79362;BME280;68830;47.566;19.012;2023-04-01T17:24:25;98654.13;;;12.12;58.69
79362;BME280;68830;47.566;19.012;2023-04-01T17:27:41;98658.19;;;11.72;61.55
79362;BME280;68830;47.566;19.012;2023-04-01T17:30:59;98634.50;;;11.49;62.10
79362;BME280;68830;47.566;19.012;2023-04-01T17:34:21;98664.00;;;11.46;63.30
79362;BME280;68830;47.566;19.012;2023-04-01T17:37:40;98659.88;;;11.44;63.00
79362;BME280;68830;47.566;19.012;2023-04-01T17:40:59;98670.97;;;11.18;63.32
79362;BME280;68830;47.566;19.012;2023-04-01T17:44:21;98673.09;;;11.22;64.83